createdAt,value
2022-10-04T00:00:38.409Z,102434.25
2022-10-04T00:02:46.813Z,102429.84
2022-10-04T00:04:52.813Z,102421.03
2022-10-04T00:06:59.685Z,102410.44
2022-10-04T00:09:26.346Z,102399.00
2022-10-04T00:11:35.395Z,102407.81
2022-10-04T00:13:38.347Z,102399.88
2022-10-04T00:15:39.984Z,102405.16
2022-10-04T00:17:41.565Z,102406.06
2022-10-04T00:19:47.044Z,102406.06
2022-10-04T00:22:12.558Z,102399.00
2022-10-04T00:24:22.228Z,102397.25
2022-10-04T00:26:23.624Z,102403.41
2022-10-04T00:28:25.233Z,102404.28
2022-10-04T00:30:36.897Z,102404.28
2022-10-04T00:32:41.384Z,102407.78
2022-10-04T00:34:49.588Z,102412.19
2022-10-04T00:36:59.905Z,102406.03
2022-10-04T00:39:06.984Z,102402.50
2022-10-04T00:41:09.347Z,102403.41
2022-10-04T00:43:23.177Z,102400.75
2022-10-04T00:45:33.715Z,102399.88
2022-10-04T00:47:57.980Z,102401.66
2022-10-04T00:50:18.810Z,102399.91
2022-10-04T00:52:25.809Z,102401.66
2022-10-04T00:54:34.706Z,102393.72
2022-10-04T00:56:43.602Z,102401.66
2022-10-04T00:59:03.345Z,102395.47
2022-10-04T01:01:05.157Z,102391.06
2022-10-04T01:03:22.003Z,102387.53
2022-10-04T01:05:29.540Z,102388.41
2022-10-04T01:07:38.054Z,102389.31
2022-10-04T01:09:50.608Z,102391.94
2022-10-04T01:12:03.528Z,102390.19
2022-10-04T01:14:27.745Z,102375.22
2022-10-04T01:16:33.645Z,102375.22
2022-10-04T01:18:36.706Z,102365.53
2022-10-04T01:21:00.053Z,102364.66
2022-10-04T01:23:03.432Z,102354.09
2022-10-04T01:25:05.517Z,102349.69
2022-10-04T01:27:34.074Z,102353.22
2022-10-04T01:29:35.691Z,102347.06
2022-10-04T01:31:41.085Z,102351.47
2022-10-04T01:33:42.793Z,102355.84
2022-10-04T01:35:44.824Z,102350.56
2022-10-04T01:37:46.532Z,102337.34
2022-10-04T01:39:48.077Z,102341.75
2022-10-04T01:41:55.546Z,102331.16
2022-10-04T01:44:03.572Z,102332.94
2022-10-04T01:46:12.446Z,102338.22
2022-10-04T01:48:22.362Z,102345.25
2022-10-04T01:50:35.573Z,102338.22
2022-10-04T01:52:43.887Z,102329.41
2022-10-04T01:54:52.722Z,102327.63
2022-10-04T01:56:58.366Z,102330.31
2022-10-04T01:59:07.108Z,102325.03
2022-10-04T02:01:30.702Z,102318.88
2022-10-04T02:03:32.410Z,102319.78
2022-10-04T02:05:38.505Z,102316.25
2022-10-04T02:07:42.117Z,102309.19
2022-10-04T02:09:47.800Z,102313.59
2022-10-04T02:11:54.080Z,102310.94
2022-10-04T02:13:56.004Z,102310.06
2022-10-04T02:15:59.144Z,102320.63
2022-10-04T02:18:02.024Z,102310.97
2022-10-04T02:20:11.776Z,102312.69
2022-10-04T02:22:13.631Z,102304.78
2022-10-04T02:24:15.879Z,102304.78
2022-10-04T02:26:17.347Z,102311.81
2022-10-04T02:28:19.092Z,102309.19
2022-10-04T02:30:20.686Z,102308.31
2022-10-04T02:32:40.828Z,102303.03
2022-10-04T02:34:42.475Z,102301.28
2022-10-04T02:36:43.967Z,102303.91
2022-10-04T02:38:55.875Z,102299.53
2022-10-04T02:41:32.288Z,102300.41
2022-10-04T02:43:51.889Z,102297.78
2022-10-04T02:46:26.186Z,102290.75
2022-10-04T02:48:33.939Z,102294.28
2022-10-04T02:50:41.053Z,102291.66
2022-10-04T02:52:46.356Z,102281.09
2022-10-04T02:55:09.611Z,102287.28
2022-10-04T02:57:19.242Z,102278.47
2022-10-04T02:59:22.086Z,102273.19
2022-10-04T03:01:40.242Z,102274.94
2022-10-04T03:03:46.433Z,102270.56
2022-10-04T03:05:59.938Z,102272.31
2022-10-04T03:08:01.776Z,102267.03
2022-10-04T03:10:08.903Z,102262.63
2022-10-04T03:12:12.590Z,102267.03
2022-10-04T03:14:18.870Z,102274.09
2022-10-04T03:16:21.714Z,102261.78
2022-10-04T03:18:24.334Z,102267.06
2022-10-04T03:20:26.198Z,102265.31
2022-10-04T03:22:27.710Z,102265.31
2022-10-04T03:24:33.569Z,102263.53
2022-10-04T03:26:54.289Z,102261.78
2022-10-04T03:28:58.189Z,102260.91
2022-10-04T03:30:59.927Z,102265.28
2022-10-04T03:33:02.200Z,102262.66
2022-10-04T03:35:07.884Z,102264.41
2022-10-04T03:37:16.312Z,102261.75
2022-10-04T03:39:27.600Z,102260.88
2022-10-04T03:41:29.116Z,102259.13
2022-10-04T03:43:34.186Z,102263.56
2022-10-04T03:45:35.772Z,102253.00
2022-10-04T03:47:40.719Z,102260.06
2022-10-04T03:49:48.616Z,102256.53
2022-10-04T03:51:52.717Z,102248.66
2022-10-04T03:53:57.366Z,102246.88
2022-10-04T03:56:04.002Z,102239.84
2022-10-04T03:58:09.260Z,102240.75
2022-10-04T04:00:16.986Z,102242.50
2022-10-04T04:02:29.997Z,102251.28
2022-10-04T04:04:43.009Z,102239.84
2022-10-04T04:07:02.415Z,102248.66
2022-10-04T04:09:06.558Z,102247.78
2022-10-04T04:11:19.987Z,102252.16
2022-10-04T04:13:33.363Z,102250.38
2022-10-04T04:15:35.121Z,102250.38
2022-10-04T04:17:41.579Z,102248.63
2022-10-04T04:19:44.118Z,102257.44
2022-10-04T04:21:46.573Z,102254.81
2022-10-04T04:23:59.743Z,102256.56
2022-10-04T04:26:19.976Z,102257.44
2022-10-04T04:28:33.904Z,102261.81
2022-10-04T04:30:38.855Z,102251.25
2022-10-04T04:32:44.597Z,102259.22
2022-10-04T04:34:52.856Z,102255.69
2022-10-04T04:37:01.604Z,102254.78
2022-10-04T04:39:27.978Z,102253.06
2022-10-04T04:41:35.252Z,102260.97
2022-10-04T04:43:36.803Z,102248.66
2022-10-04T04:45:38.588Z,102251.28
2022-10-04T04:47:44.733Z,102245.13
2022-10-04T04:49:46.260Z,102243.34
2022-10-04T04:51:51.819Z,102246.88
2022-10-04T04:53:55.417Z,102238.94
2022-10-04T04:56:03.830Z,102234.56
2022-10-04T04:58:08.595Z,102227.53
2022-10-04T05:00:18.213Z,102229.28
2022-10-04T05:02:35.790Z,102228.41
2022-10-04T05:04:37.338Z,102229.28
2022-10-04T05:06:45.213Z,102230.16
2022-10-04T05:08:50.338Z,102230.16
2022-10-04T05:10:58.340Z,102224.88
2022-10-04T05:13:01.981Z,102224.91
2022-10-04T05:15:03.768Z,102222.28
2022-10-04T05:17:06.199Z,102227.56
2022-10-04T05:19:14.014Z,102227.56
2022-10-04T05:21:23.848Z,102234.63
2022-10-04T05:23:25.641Z,102227.59
2022-10-04T05:25:33.501Z,102227.56
2022-10-04T05:27:38.049Z,102233.72
2022-10-04T05:29:47.451Z,102239.03
2022-10-04T05:32:25.967Z,102232.00
2022-10-04T05:34:29.047Z,102230.28
2022-10-04T05:36:50.610Z,102234.66
2022-10-04T05:39:06.084Z,102238.19
2022-10-04T05:41:17.756Z,102243.50
2022-10-04T05:43:35.434Z,102232.91
2022-10-04T05:45:36.982Z,102233.81
2022-10-04T05:47:42.401Z,102233.81
2022-10-04T05:49:46.304Z,102234.69
2022-10-04T05:51:49.102Z,102226.75
2022-10-04T05:53:51.122Z,102234.69
2022-10-04T05:55:55.280Z,102228.53
2022-10-04T05:58:09.028Z,102234.69
2022-10-04T06:00:20.861Z,102233.81
2022-10-04T06:02:50.122Z,102234.69
2022-10-04T06:05:08.299Z,102235.56
2022-10-04T06:07:19.910Z,102236.44
2022-10-04T06:09:30.084Z,102233.78
2022-10-04T06:11:43.172Z,102230.25
2022-10-04T06:13:55.113Z,102224.09
2022-10-04T06:16:11.994Z,102220.56
2022-10-04T06:18:28.999Z,102223.19
2022-10-04T06:21:07.737Z,102222.31
2022-10-04T06:23:19.218Z,102231.09
2022-10-04T06:25:37.161Z,102225.81
2022-10-04T06:27:45.563Z,102228.47
2022-10-04T06:29:55.236Z,102234.63
2022-10-04T06:32:35.672Z,102234.63
2022-10-04T06:34:46.133Z,102246.94
2022-10-04T06:37:22.793Z,102239.88
2022-10-04T06:39:52.235Z,102230.19
2022-10-04T06:42:26.335Z,102231.06
2022-10-04T06:44:54.344Z,102224.88
2022-10-04T06:47:23.844Z,102222.22
2022-10-04T06:49:53.188Z,102225.75
2022-10-04T06:52:03.728Z,102230.13
2022-10-04T06:54:08.146Z,102232.72
2022-10-04T06:56:12.694Z,102229.16
2022-10-04T06:58:33.182Z,102237.03
2022-10-04T07:00:51.724Z,102231.72
2022-10-04T07:02:57.990Z,102240.50
2022-10-04T07:05:09.435Z,102234.28
2022-10-04T07:07:35.665Z,102239.56
2022-10-04T07:09:40.824Z,102240.41
2022-10-04T07:11:51.194Z,102241.22
2022-10-04T07:14:33.007Z,102235.00
2022-10-04T07:16:43.941Z,102238.44
2022-10-04T07:18:54.323Z,102237.50
2022-10-04T07:21:06.306Z,102237.44
2022-10-04T07:23:15.813Z,102233.84
2022-10-04T07:25:30.395Z,102235.53
2022-10-04T07:28:15.018Z,102236.34
2022-10-04T07:30:20.225Z,102237.13
2022-10-04T07:32:28.884Z,102225.63
2022-10-04T07:34:35.300Z,102236.19
2022-10-04T07:36:53.939Z,102243.16
2022-10-04T07:38:59.516Z,102241.34
2022-10-04T07:41:23.166Z,102243.91
2022-10-04T07:43:32.430Z,102243.84
2022-10-04T07:45:39.824Z,102240.22
2022-10-04T07:47:43.090Z,102251.59
2022-10-04T07:49:44.569Z,102254.13
2022-10-04T07:52:19.342Z,102247.84
2022-10-04T07:54:44.794Z,102237.09
2022-10-04T07:56:58.215Z,102237.00
2022-10-04T07:59:17.979Z,102233.44
2022-10-04T08:01:53.476Z,102226.34
2022-10-04T08:04:41.786Z,102223.66
2022-10-04T08:06:56.412Z,102231.50
2022-10-04T08:09:32.630Z,102236.66
2022-10-04T08:11:49.618Z,102231.28
2022-10-04T08:13:59.104Z,102233.81
2022-10-04T08:16:04.586Z,102235.44
2022-10-04T08:18:06.103Z,102240.75
2022-10-04T08:20:27.736Z,102237.22
2022-10-04T08:22:52.261Z,102234.53
2022-10-04T08:25:05.933Z,102236.25
2022-10-04T08:27:34.584Z,102230.78
2022-10-04T08:29:44.964Z,102235.94
2022-10-04T08:32:14.199Z,102230.47
2022-10-04T08:34:45.586Z,102231.25
2022-10-04T08:37:17.760Z,102230.31
2022-10-04T08:39:38.091Z,102224.88
2022-10-04T08:42:04.759Z,102222.03
2022-10-04T08:44:18.068Z,102220.03
2022-10-04T08:46:53.700Z,102213.59
2022-10-04T08:49:21.146Z,102208.03
2022-10-04T08:51:37.581Z,102213.94
2022-10-04T08:54:11.473Z,102209.22
2022-10-04T08:56:27.320Z,102206.41
2022-10-04T08:59:00.342Z,102209.81
2022-10-04T09:01:25.534Z,102209.63
2022-10-04T09:03:42.253Z,102205.00
2022-10-04T09:05:56.795Z,102204.06
2022-10-04T09:08:35.847Z,102209.16
2022-10-04T09:11:21.944Z,102201.00
2022-10-04T09:13:46.611Z,102200.16
2022-10-04T09:15:52.960Z,102193.97
2022-10-04T09:18:12.590Z,102191.22
2022-10-04T09:20:39.672Z,102181.47
2022-10-04T09:22:44.171Z,102184.00
2022-10-04T09:25:14.146Z,102180.41
2022-10-04T09:27:50.042Z,102176.75
2022-10-04T09:30:11.406Z,102178.41
2022-10-04T09:32:18.641Z,102186.22
2022-10-04T09:34:37.323Z,102181.59
2022-10-04T09:37:14.440Z,102176.16
2022-10-04T09:39:34.689Z,102179.66
2022-10-04T09:41:42.111Z,102181.16
2022-10-04T09:44:20.896Z,102181.84
2022-10-04T09:46:56.305Z,102181.59
2022-10-04T09:49:00.476Z,102190.38
2022-10-04T09:51:34.415Z,102177.81
2022-10-04T09:54:03.650Z,102187.50
2022-10-04T09:56:26.799Z,102175.00
2022-10-04T09:58:53.283Z,102170.47
2022-10-04T10:01:14.184Z,102163.19
2022-10-04T10:03:36.748Z,102170.22
2022-10-04T10:06:23.256Z,102163.09
2022-10-04T10:08:36.323Z,102155.00
2022-10-04T10:11:17.623Z,102158.31
2022-10-04T10:13:45.500Z,102154.31
2022-10-04T10:16:05.376Z,102151.41
2022-10-04T10:18:22.184Z,102150.41
2022-10-04T10:20:46.850Z,102154.63
2022-10-04T10:23:25.242Z,102147.16
2022-10-04T10:25:48.892Z,102152.34
2022-10-04T10:28:18.230Z,102152.91
2022-10-04T10:30:31.184Z,102162.31
2022-10-04T10:32:58.946Z,102154.66
2022-10-04T10:35:22.802Z,102153.19
2022-10-04T10:37:24.960Z,102154.34
2022-10-04T10:39:53.811Z,102146.69
2022-10-04T10:42:21.507Z,102147.75
2022-10-04T10:44:35.508Z,102154.00
2022-10-04T10:47:03.208Z,102155.78
2022-10-04T10:49:26.105Z,102150.88
2022-10-04T10:52:06.224Z,102146.84
2022-10-04T10:54:25.242Z,102151.06
2022-10-04T10:56:46.920Z,102146.66
2022-10-04T10:59:06.066Z,102146.97
2022-10-04T11:01:47.221Z,102150.75
2022-10-04T11:04:06.968Z,102149.63
2022-10-04T11:06:25.404Z,102144.28
2022-10-04T11:08:29.956Z,102134.41
2022-10-04T11:10:52.366Z,102142.94
2022-10-04T11:13:21.600Z,102142.50
2022-10-04T11:15:42.003Z,102138.75
2022-10-04T11:17:56.317Z,102135.31
2022-10-04T11:20:32.020Z,102141.38
2022-10-04T11:23:17.758Z,102131.28
2022-10-04T11:25:50.728Z,102132.16
2022-10-04T11:28:13.908Z,102129.72
2022-10-04T11:30:51.392Z,102130.78
2022-10-04T11:33:14.679Z,102126.06
2022-10-04T11:35:36.894Z,102119.81
2022-10-04T11:37:51.013Z,102111.63
2022-10-04T11:40:01.804Z,102109.13
2022-10-04T11:42:30.516Z,102108.44
2022-10-04T11:44:59.843Z,102104.84
2022-10-04T11:47:07.820Z,102102.34
2022-10-04T11:49:27.810Z,102092.88
2022-10-04T11:51:51.219Z,102086.84
2022-10-04T11:54:30.224Z,102083.19
2022-10-04T11:56:37.783Z,102084.19
2022-10-04T11:58:52.492Z,102084.16
2022-10-04T12:01:30.390Z,102081.25
2022-10-04T12:04:18.076Z,102077.03
2022-10-04T12:06:25.648Z,102077.72
2022-10-04T12:08:31.834Z,102075.34
2022-10-04T12:10:48.315Z,102067.06
2022-10-04T12:12:52.552Z,102068.13
2022-10-04T12:15:00.133Z,102056.81
2022-10-04T12:17:44.397Z,102060.53
2022-10-04T12:20:11.880Z,102060.25
2022-10-04T12:23:06.420Z,102067.63
2022-10-04T12:25:38.825Z,102066.63
2022-10-04T12:28:12.258Z,102064.22
2022-10-04T12:30:23.859Z,102063.63
2022-10-04T12:32:34.337Z,102065.38
2022-10-04T12:34:57.881Z,102061.03
2022-10-04T12:37:05.588Z,102055.94
2022-10-04T12:39:25.305Z,102063.31
2022-10-04T12:41:33.118Z,102051.53
2022-10-04T12:43:56.693Z,102053.81
2022-10-04T12:46:13.098Z,102049.88
2022-10-04T12:48:48.240Z,102043.97
2022-10-04T12:51:04.000Z,102039.91
2022-10-04T12:53:38.165Z,102032.88
2022-10-04T12:56:01.608Z,102031.47
2022-10-04T12:58:30.138Z,102027.38
2022-10-04T13:00:43.814Z,102028.50
2022-10-04T13:02:45.405Z,102028.56
2022-10-04T13:04:55.163Z,102025.78
2022-10-04T13:07:02.409Z,102028.50
2022-10-04T13:09:28.097Z,102028.63
2022-10-04T13:11:41.632Z,102016.47
2022-10-04T13:13:55.294Z,102018.53
2022-10-04T13:19:09.576Z,102007.78
2022-10-04T13:21:19.712Z,102000.72
2022-10-04T13:23:31.876Z,101994.50
2022-10-04T13:25:52.233Z,101994.56
2022-10-04T13:28:23.460Z,101997.31
2022-10-04T13:30:32.512Z,101985.94
2022-10-04T13:33:17.676Z,101984.50
2022-10-04T13:35:51.534Z,101980.03
2022-10-04T13:38:18.059Z,101978.97
2022-10-04T13:40:55.534Z,101979.84
2022-10-04T13:42:56.905Z,101973.50
2022-10-04T13:45:18.359Z,101968.09
2022-10-04T13:48:09.297Z,101968.22
2022-10-04T13:50:33.604Z,101956.06
2022-10-04T13:53:03.076Z,101952.63
2022-10-04T13:55:44.591Z,101961.59
2022-10-04T13:57:57.396Z,101953.50
2022-10-04T14:00:11.520Z,101959.66
2022-10-04T14:02:18.951Z,101963.25
2022-10-04T14:04:42.216Z,101960.59
2022-10-04T14:07:03.873Z,101962.25
2022-10-04T14:09:26.526Z,101955.94
2022-10-04T14:12:09.535Z,101956.72
2022-10-04T14:14:25.537Z,101955.94
2022-10-04T14:16:50.415Z,101945.44
2022-10-04T14:19:08.373Z,101955.50
2022-10-04T14:21:38.033Z,101958.97
2022-10-04T14:24:02.720Z,101957.91
2022-10-04T14:26:14.440Z,101965.81
2022-10-04T14:28:58.842Z,101969.41
2022-10-04T14:31:37.244Z,101962.34
2022-10-04T14:34:01.338Z,101958.09
2022-10-04T14:36:02.749Z,101959.28
2022-10-04T14:38:45.576Z,101965.75
2022-10-04T14:40:49.950Z,101948.88
2022-10-04T14:43:15.235Z,101949.66
2022-10-04T14:45:24.490Z,101942.53
2022-10-04T14:47:44.263Z,101934.44
2022-10-04T14:50:01.056Z,101926.38
2022-10-04T14:52:33.169Z,101920.97
2022-10-04T14:54:42.270Z,101926.25
2022-10-04T14:56:53.325Z,101923.63
2022-10-04T14:59:15.072Z,101920.97
2022-10-04T15:01:25.235Z,101921.03
2022-10-04T15:03:38.965Z,101908.78
2022-10-04T15:05:53.010Z,101908.09
2022-10-04T15:08:09.868Z,101922.34
2022-10-04T15:10:14.000Z,101918.75
2022-10-04T15:12:51.883Z,101917.97
2022-10-04T15:14:58.523Z,101927.03
2022-10-04T15:17:03.492Z,101935.16
2022-10-04T15:19:22.666Z,101932.59
2022-10-04T15:21:47.114Z,101938.00
2022-10-04T15:24:10.663Z,101938.91
2022-10-04T15:26:18.209Z,101936.25
2022-10-04T15:28:53.999Z,101935.38
2022-10-04T15:31:01.644Z,101920.34
2022-10-04T15:33:32.039Z,101920.41
2022-10-04T15:36:28.826Z,101921.34
2022-10-04T15:38:53.686Z,101917.00
2022-10-04T15:41:30.705Z,101916.19
2022-10-04T15:44:04.887Z,101919.13
2022-10-04T15:46:27.944Z,101917.63
2022-10-04T15:48:53.951Z,101908.81
2022-10-04T15:51:13.906Z,101915.22
2022-10-04T15:53:23.341Z,101911.81
2022-10-04T15:55:24.747Z,101916.50
2022-10-04T15:58:02.992Z,101924.75
2022-10-04T16:00:15.561Z,101918.16
2022-10-04T16:02:42.675Z,101914.56
2022-10-04T16:04:44.801Z,101921.69
2022-10-04T16:07:06.484Z,101925.41
2022-10-04T16:09:28.873Z,101923.66
2022-10-04T16:12:00.623Z,101914.91
2022-10-04T16:14:33.873Z,101915.09
2022-10-04T16:16:39.826Z,101916.97
2022-10-04T16:19:03.045Z,101901.19
2022-10-04T16:21:16.907Z,101902.22
2022-10-04T16:23:29.403Z,101891.78
2022-10-04T16:25:37.810Z,101900.84
2022-10-04T16:27:51.285Z,101901.88
2022-10-04T16:32:36.653Z,101896.09
2022-10-04T16:34:45.503Z,101895.28
2022-10-04T16:36:53.990Z,101897.97
2022-10-04T16:39:18.343Z,101899.84
2022-10-04T16:41:36.599Z,101899.31
2022-10-04T16:43:51.600Z,101896.88
2022-10-04T16:46:26.257Z,101891.72
2022-10-04T16:48:27.775Z,101891.91
2022-10-04T16:51:06.586Z,101882.34
2022-10-04T16:53:44.773Z,101888.88
2022-10-04T16:55:57.506Z,101889.03
2022-10-04T16:58:26.820Z,101888.47
2022-10-04T17:00:36.786Z,101889.50
2022-10-04T17:03:01.161Z,101894.13
2022-10-04T17:05:22.544Z,101895.19
2022-10-04T17:07:51.349Z,101890.03
2022-10-04T17:09:56.353Z,101891.97
2022-10-04T17:12:07.071Z,101888.47
2022-10-04T17:14:31.171Z,101890.50
2022-10-04T17:16:56.106Z,101894.28
2022-10-04T17:19:03.252Z,101901.50
2022-10-04T17:21:23.759Z,101903.47
2022-10-04T17:23:34.024Z,101908.03
2022-10-04T17:25:42.731Z,101909.06
2022-10-04T17:27:53.466Z,101907.44
2022-10-04T17:30:21.387Z,101902.25
2022-10-04T17:32:42.652Z,101899.84
2022-10-04T17:35:02.698Z,101896.50
2022-10-04T17:37:44.592Z,101894.97
2022-10-04T17:40:08.696Z,101889.84
2022-10-04T17:42:10.357Z,101893.56
2022-10-04T17:44:45.252Z,101895.47
2022-10-04T17:47:14.867Z,101904.56
2022-10-04T17:49:41.469Z,101901.06
2022-10-04T17:52:12.143Z,101910.13
2022-10-04T17:54:34.556Z,101904.06
2022-10-04T17:56:42.265Z,101909.50
2022-10-04T17:58:55.764Z,101913.22
2022-10-04T18:01:08.273Z,101900.06
2022-10-04T18:03:16.569Z,101907.19
2022-10-04T18:05:23.777Z,101903.75
2022-10-04T18:07:33.041Z,101908.31
2022-10-04T18:09:40.589Z,101904.00
2022-10-04T18:11:47.239Z,101908.56
2022-10-04T18:14:04.442Z,101909.59
2022-10-04T18:16:25.558Z,101906.16
2022-10-04T18:18:29.926Z,101907.19
2022-10-04T18:20:53.466Z,101903.72
2022-10-04T18:23:01.074Z,101909.19
2022-10-04T18:25:23.249Z,101900.44
2022-10-04T18:27:26.699Z,101899.69
2022-10-04T18:29:43.140Z,101886.59
2022-10-04T18:31:44.685Z,101881.38
2022-10-04T18:33:53.868Z,101880.56
2022-10-04T18:36:06.347Z,101872.72
2022-10-04T18:38:11.261Z,101871.91
2022-10-04T18:40:31.978Z,101862.28
2022-10-04T18:42:40.853Z,101871.13
2022-10-04T18:45:20.918Z,101872.09
2022-10-04T18:47:41.350Z,101879.22
2022-10-04T18:49:52.515Z,101880.94
2022-10-04T18:52:12.614Z,101888.97
2022-10-04T18:54:14.197Z,101897.81
2022-10-04T18:56:17.241Z,101917.25
2022-10-04T18:59:12.469Z,101931.44
2022-10-04T19:02:01.636Z,101929.81
2022-10-04T19:04:13.810Z,101923.69
2022-10-04T19:06:29.796Z,101929.97
2022-10-04T19:08:45.711Z,101938.03
2022-10-04T19:11:12.526Z,101939.00
2022-10-04T19:13:32.338Z,101931.94
2022-10-04T19:15:45.985Z,101921.41
2022-10-04T19:18:22.507Z,101931.25
2022-10-04T19:20:54.541Z,101919.91
2022-10-04T19:23:23.980Z,101917.31
2022-10-04T19:25:31.473Z,101901.44
2022-10-04T19:27:46.280Z,101895.34
2022-10-04T19:29:58.208Z,101899.78
2022-10-04T19:32:08.935Z,101891.03
2022-10-04T19:34:25.573Z,101891.97
2022-10-04T19:36:46.313Z,101894.72
2022-10-04T19:39:14.468Z,101889.47
2022-10-04T19:41:43.774Z,101886.91
2022-10-04T19:43:51.213Z,101892.25
2022-10-04T19:46:17.180Z,101890.53
2022-10-04T19:48:24.799Z,101879.09
2022-10-04T19:50:37.738Z,101891.53
2022-10-04T19:52:49.302Z,101902.22
2022-10-04T19:55:08.897Z,101897.00
2022-10-04T19:57:15.105Z,101892.56
2022-10-04T19:59:45.880Z,101897.13
2022-10-04T20:01:48.685Z,101902.41
2022-10-04T20:04:11.568Z,101912.13
2022-10-04T20:06:26.182Z,101927.19
2022-10-04T20:09:02.410Z,101924.63
2022-10-04T20:11:19.436Z,101920.22
2022-10-04T20:13:26.209Z,101916.72
2022-10-04T20:15:45.169Z,101903.56
2022-10-04T20:17:48.943Z,101904.50
2022-10-04T20:19:50.414Z,101904.50
2022-10-04T20:21:51.861Z,101900.13
2022-10-04T20:23:56.605Z,101896.63
2022-10-04T20:25:58.350Z,101888.72
2022-10-04T20:28:01.794Z,101884.28
2022-10-04T20:30:14.243Z,101871.06
2022-10-04T20:32:33.975Z,101847.25
2022-10-04T20:34:38.587Z,101838.41
2022-10-04T20:36:43.296Z,101820.63
2022-10-04T20:38:50.617Z,101816.13
2022-10-04T20:40:52.114Z,101814.31
2022-10-04T20:43:15.517Z,101826.63
2022-10-04T20:45:32.731Z,101828.38
2022-10-04T20:47:43.705Z,101836.22
2022-10-04T20:49:45.629Z,101833.53
2022-10-04T20:51:48.673Z,101849.41
2022-10-04T20:53:52.822Z,101843.22
2022-10-04T20:56:19.212Z,101840.63
2022-10-04T20:58:35.377Z,101851.22
2022-10-04T21:00:52.516Z,101860.94
2022-10-04T21:03:15.476Z,101854.81
2022-10-04T21:05:27.058Z,101863.63
2022-10-04T21:07:28.541Z,101867.16
2022-10-04T21:09:31.463Z,101856.59
2022-10-04T21:11:44.628Z,101861.03
2022-10-04T21:13:57.576Z,101867.22
2022-10-04T21:15:59.575Z,101873.44
2022-10-04T21:18:01.074Z,101876.97
2022-10-04T21:20:02.836Z,101877.91
2022-10-04T21:22:09.061Z,101874.41
2022-10-04T21:24:38.481Z,101870.06
2022-10-04T21:26:55.213Z,101874.50
2022-10-04T21:28:59.672Z,101871.00
2022-10-04T21:31:02.876Z,101863.06
2022-10-04T21:33:04.311Z,101867.50
2022-10-04T21:35:07.691Z,101866.63
2022-10-04T21:37:09.120Z,101858.72
2022-10-04T21:39:10.574Z,101855.22
2022-10-04T21:41:12.005Z,101856.09
2022-10-04T21:43:13.510Z,101850.81
2022-10-04T21:45:15.053Z,101858.75
2022-10-04T21:47:16.861Z,101855.19
2022-10-04T21:49:18.301Z,101854.28
2022-10-04T21:51:19.708Z,101861.38
2022-10-04T21:53:21.453Z,101850.81
2022-10-04T21:55:23.299Z,101856.13
2022-10-04T21:57:24.788Z,101864.97
2022-10-04T21:59:26.298Z,101866.78
2022-10-04T22:01:27.835Z,101864.13
2022-10-04T22:03:29.467Z,101864.13
2022-10-04T22:05:30.923Z,101871.19
2022-10-04T22:07:32.360Z,101864.13
2022-10-04T22:09:35.665Z,101862.38
2022-10-04T22:11:37.435Z,101865.97
2022-10-04T22:13:39.406Z,101869.50
2022-10-04T22:15:40.906Z,101864.22
2022-10-04T22:17:42.356Z,101858.03
2022-10-04T22:19:43.803Z,101849.22
2022-10-04T22:21:45.235Z,101850.91
2022-10-04T22:23:46.850Z,101839.38
2022-10-04T22:25:48.960Z,101849.03
2022-10-04T22:27:52.026Z,101831.38
2022-10-04T22:29:55.948Z,101842.81
2022-10-04T22:31:57.496Z,101834.91
2022-10-04T22:33:59.296Z,101837.59
2022-10-04T22:36:24.023Z,101846.44
2022-10-04T22:38:25.694Z,101842.03
2022-10-04T22:40:28.654Z,101841.19
2022-10-04T22:42:31.865Z,101842.06
2022-10-04T22:44:38.332Z,101846.50
2022-10-04T22:46:42.539Z,101843.00
2022-10-04T22:48:47.926Z,101838.56
2022-10-04T22:50:49.858Z,101835.91
2022-10-04T22:52:51.386Z,101837.69
2022-10-04T22:54:55.224Z,101834.13
2022-10-04T22:56:57.527Z,101840.31
2022-10-04T22:58:59.689Z,101837.66
2022-10-04T23:01:01.285Z,101830.63
2022-10-04T23:03:21.426Z,101828.00
2022-10-04T23:05:23.102Z,101832.41
2022-10-04T23:07:24.691Z,101831.53
2022-10-04T23:09:26.261Z,101827.16
2022-10-04T23:11:31.359Z,101826.28
2022-10-04T23:13:33.264Z,101830.69
2022-10-04T23:15:34.886Z,101827.16
2022-10-04T23:17:39.531Z,101827.16
2022-10-04T23:19:40.971Z,101819.25
2022-10-04T23:21:45.052Z,101819.25
2022-10-04T23:23:47.765Z,101828.09
2022-10-04T23:25:50.177Z,101829.88
2022-10-04T23:27:52.019Z,101828.13
2022-10-04T23:30:01.657Z,101828.16
2022-10-04T23:32:12.521Z,101828.22
2022-10-04T23:34:18.817Z,101819.41
2022-10-04T23:36:21.547Z,101813.28
2022-10-04T23:38:24.815Z,101813.31
2022-10-04T23:40:26.497Z,101806.31
2022-10-04T23:42:31.880Z,101811.56
2022-10-04T23:44:37.933Z,101802.72
2022-10-04T23:46:39.669Z,101804.50
2022-10-04T23:48:42.605Z,101800.94
2022-10-04T23:50:44.149Z,101809.75
2022-10-04T23:52:45.679Z,101805.38
2022-10-04T23:54:51.666Z,101806.25
2022-10-04T23:56:53.466Z,101808.91
2022-10-04T23:58:58.615Z,101808.03
